Rankings de siempre
Mejores tiempos personales válidos de equipo a través de todos los eventos y temporadas. Cada equipo aparece una vez por división.
Busca por nombre y abre la página donde está clasificado este récord de división.
138,172 equipos clasificados
| Pos. | Pos. AG | Equipo | Nacionalidad | Categoría de edad | TiempoMejor tiempo | Diferencia |
|---|---|---|---|---|---|---|
| 131427 | -- | Ugo Giangreco & Loann DaincheFRA · M MU29 | FRA | M MU29 | 1:43:17 | +55:37 |
| 131428 | #16897 | Michael Fouch & Alex MartinUSA · M 25-29 · AG #16897 | USA | M 25-29 | 1:43:17 | +55:37 |
| 131429 | #18686 | Michael Cutler & Talal IkhwanM 40-44 · AG #18686 | -- | M 40-44 | 1:43:17 | +55:37 |
| 131430 | #15521 | Oliver Jewsbury & Neil JewsburyGBR · M 35-39 · AG #15521 | GBR | M 35-39 | 1:43:18 | +55:38 |
| 131431 | #18687 | Ryan Stewart & Hugh StewartGBR · M 40-44 · AG #18687 | GBR | M 40-44 | 1:43:18 | +55:38 |
| 131432 | #2942 | Ian DAVIES & Matthew ReesM 50-54 · AG #2942 | -- | M 50-54 | 1:43:18 | +55:38 |
| 131433 | #47263 | Gavin Woodham & Mark BristowGBR · M 30-34 · AG #47263 | GBR | M 30-34 | 1:43:18 | +55:38 |
| 131434 | #4121 | Christian Bertagnon & Giacomo FicchìITA · M 45-49 · AG #4121 | ITA | M 45-49 | 1:43:19 | +55:39 |
| 131435 | #4122 | Brett Guarnieri & Jason BleimeyerUSA · M 45-49 · AG #4122 | USA | M 45-49 | 1:43:19 | +55:39 |
| 131436 | #472 | Eric Fraselle & Denis ChaltinBEL · M 55-59 · AG #472 | BEL | M 55-59 | 1:43:19 | +55:39 |
| 131437 | #47264 | Oliver Ko & Anthony NguyenCAN · M 30-34 · AG #47264 | CAN | M 30-34 | 1:43:19 | +55:39 |
| 131438 | #47265 | Craig Hamilton & Jordan HamiltonGBR · M 30-34 · AG #47265 | GBR | M 30-34 | 1:43:19 | +55:39 |
| 131439 | -- | Jirapat Jaroonvechatam & Piyaphong AtsawaphonsakunTHA · M MU29 | THA | M MU29 | 1:43:19 | +55:39 |
| 131440 | #16898 | Sean Lee & Harshil MistryNZL · M 25-29 · AG #16898 | NZL | M 25-29 | 1:43:20 | +55:40 |
| 131441 | #15522 | Bruno Seifer & Carlos HeluMEX · M 35-39 · AG #15522 | MEX | M 35-39 | 1:43:20 | +55:40 |
| 131442 | #9693 | Zack Grandmougin & Louka SaricFRA · M 16-24 · AG #9693 | FRA | M 16-24 | 1:43:20 | +55:40 |
| 131443 | #9694 | Corey Harris & Henry PavelyGBR · M 16-24 · AG #9694 | GBR | M 16-24 | 1:43:20 | +55:40 |
| 131444 | #15523 | Aaron Chong & Mike ChoeCAN · M 35-39 · AG #15523 | CAN | M 35-39 | 1:43:20 | +55:40 |
| 131445 | #47266 | Claudio Caraffa & Gian Filippo VentisetteITA · M 30-34 · AG #47266 | ITA | M 30-34 | 1:43:20 | +55:40 |
| 131446 | #533 | Francis Ostrea & Robert FranklinUSA · M 40-49 · AG #533 | USA | M 40-49 | 1:43:20 | +55:40 |
| 131447 | #2943 | Heinrich Reul & Andreas MüllerGER · M 50-54 · AG #2943 | GER | M 50-54 | 1:43:20 | +55:40 |
| 131448 | #18688 | Davinder Daffu & Avi ParwarGBR · M 40-44 · AG #18688 | GBR | M 40-44 | 1:43:20 | +55:40 |
| 131449 | -- | Brice Hildred & Ben DewhirstAUS · M MU29 | AUS | M MU29 | 1:43:20 | +55:40 |
| 131450 | #47267 | Jamie Corbishley & Francis HickeyM 30-34 · AG #47267 | -- | M 30-34 | 1:43:20 | +55:40 |
| 131451 | -- | J Del Cid & Colton VanderfordM MU29 | -- | M MU29 | 1:43:20 | +55:40 |
Página 5,258 de 5,527